sensor_id;sensor_type;location;lat;lon;timestamp;temperature;humidity
24522;DHT22;12680;57.804;12.190;2022-11-03T00:01:59;9.00;99.90
24522;DHT22;12680;57.804;12.190;2022-11-03T00:04:26;8.90;99.90
24522;DHT22;12680;57.804;12.190;2022-11-03T00:06:54;8.90;99.90
24522;DHT22;12680;57.804;12.190;2022-11-03T00:09:22;8.90;99.90
24522;DHT22;12680;57.804;12.190;2022-11-03T00:11:50;8.90;99.90
24522;DHT22;12680;57.804;12.190;2022-11-03T00:14:18;8.80;99.90
24522;DHT22;12680;57.804;12.190;2022-11-03T00:16:46;8.80;99.90
24522;DHT22;12680;57.804;12.190;2022-11-03T00:19:13;8.80;99.90
24522;DHT22;12680;57.804;12.190;2022-11-03T00:21:44;8.80;99.90
24522;DHT22;12680;57.804;12.190;2022-11-03T00:24:12;8.70;99.90
24522;DHT22;12680;57.804;12.190;2022-11-03T00:26:39;8.70;99.90
24522;DHT22;12680;57.804;12.190;2022-11-03T00:29:11;8.70;99.90
24522;DHT22;12680;57.804;12.190;2022-11-03T00:31:40;8.70;99.90
24522;DHT22;12680;57.804;12.190;2022-11-03T00:34:08;8.70;99.90
24522;DHT22;12680;57.804;12.190;2022-11-03T00:36:40;8.70;99.90
24522;DHT22;12680;57.804;12.190;2022-11-03T00:39:09;8.70;99.90
24522;DHT22;12680;57.804;12.190;2022-11-03T00:41:37;8.70;99.90
24522;DHT22;12680;57.804;12.190;2022-11-03T00:44:05;8.60;99.90
24522;DHT22;12680;57.804;12.190;2022-11-03T00:46:32;8.60;99.90
24522;DHT22;12680;57.804;12.190;2022-11-03T00:49:05;8.60;99.90
24522;DHT22;12680;57.804;12.190;2022-11-03T00:51:32;8.60;99.90
24522;DHT22;12680;57.804;12.190;2022-11-03T00:54:04;8.60;99.90
24522;DHT22;12680;57.804;12.190;2022-11-03T00:56:37;8.60;99.90
24522;DHT22;12680;57.804;12.190;2022-11-03T00:59:06;8.70;99.90
24522;DHT22;12680;57.804;12.190;2022-11-03T01:01:36;8.70;99.90
24522;DHT22;12680;57.804;12.190;2022-11-03T01:04:12;8.70;99.90
24522;DHT22;12680;57.804;12.190;2022-11-03T01:06:58;8.70;99.90
24522;DHT22;12680;57.804;12.190;2022-11-03T01:14:31;8.70;99.90
24522;DHT22;12680;57.804;12.190;2022-11-03T01:16:59;8.70;99.90
24522;DHT22;12680;57.804;12.190;2022-11-03T01:19:26;8.80;99.90
24522;DHT22;12680;57.804;12.190;2022-11-03T01:21:53;8.80;99.90
24522;DHT22;12680;57.804;12.190;2022-11-03T01:24:21;8.80;99.90
24522;DHT22;12680;57.804;12.190;2022-11-03T01:26:48;8.80;99.90
24522;DHT22;12680;57.804;12.190;2022-11-03T01:29:16;8.90;99.90
24522;DHT22;12680;57.804;12.190;2022-11-03T01:31:43;8.90;99.90
24522;DHT22;12680;57.804;12.190;2022-11-03T01:34:19;8.90;99.90
24522;DHT22;12680;57.804;12.190;2022-11-03T01:36:47;8.90;99.90
24522;DHT22;12680;57.804;12.190;2022-11-03T01:39:16;8.90;99.90
24522;DHT22;12680;57.804;12.190;2022-11-03T01:41:45;9.00;99.90
24522;DHT22;12680;57.804;12.190;2022-11-03T01:55:07;9.00;99.90
24522;DHT22;12680;57.804;12.190;2022-11-03T01:57:54;9.10;99.90
24522;DHT22;12680;57.804;12.190;2022-11-03T02:00:23;9.00;99.90
24522;DHT22;12680;57.804;12.190;2022-11-03T02:02:51;9.00;99.90
24522;DHT22;12680;57.804;12.190;2022-11-03T02:05:19;9.00;99.90
24522;DHT22;12680;57.804;12.190;2022-11-03T02:07:58;9.00;99.90
24522;DHT22;12680;57.804;12.190;2022-11-03T02:10:26;9.00;99.90
24522;DHT22;12680;57.804;12.190;2022-11-03T02:12:53;9.10;99.90
24522;DHT22;12680;57.804;12.190;2022-11-03T02:15:22;9.10;99.90
24522;DHT22;12680;57.804;12.190;2022-11-03T02:17:51;9.20;99.90
24522;DHT22;12680;57.804;12.190;2022-11-03T02:20:23;9.30;99.90
24522;DHT22;12680;57.804;12.190;2022-11-03T02:23:38;9.40;99.90
24522;DHT22;12680;57.804;12.190;2022-11-03T02:26:07;9.40;99.90
24522;DHT22;12680;57.804;12.190;2022-11-03T02:28:35;9.40;99.90
24522;DHT22;12680;57.804;12.190;2022-11-03T02:31:15;9.40;99.90
24522;DHT22;12680;57.804;12.190;2022-11-03T02:34:03;9.50;99.90
24522;DHT22;12680;57.804;12.190;2022-11-03T02:36:48;9.50;99.90
24522;DHT22;12680;57.804;12.190;2022-11-03T02:39:24;9.60;99.90
24522;DHT22;12680;57.804;12.190;2022-11-03T02:41:54;9.60;99.90
24522;DHT22;12680;57.804;12.190;2022-11-03T02:44:22;9.60;99.90
24522;DHT22;12680;57.804;12.190;2022-11-03T02:46:56;9.60;99.90
24522;DHT22;12680;57.804;12.190;2022-11-03T02:49:24;9.60;99.90
24522;DHT22;12680;57.804;12.190;2022-11-03T02:52:01;9.60;99.90
24522;DHT22;12680;57.804;12.190;2022-11-03T02:54:41;9.70;99.90
24522;DHT22;12680;57.804;12.190;2022-11-03T02:57:20;9.70;99.90
24522;DHT22;12680;57.804;12.190;2022-11-03T03:00:04;9.80;99.90
24522;DHT22;12680;57.804;12.190;2022-11-03T03:05:10;9.70;99.90
24522;DHT22;12680;57.804;12.190;2022-11-03T03:07:45;9.70;99.90
24522;DHT22;12680;57.804;12.190;2022-11-03T03:10:18;9.70;99.90
24522;DHT22;12680;57.804;12.190;2022-11-03T03:12:48;9.70;99.90
24522;DHT22;12680;57.804;12.190;2022-11-03T03:15:17;9.70;99.90
24522;DHT22;12680;57.804;12.190;2022-11-03T03:17:55;9.70;99.90
24522;DHT22;12680;57.804;12.190;2022-11-03T03:20:37;9.70;99.90
24522;DHT22;12680;57.804;12.190;2022-11-03T03:23:18;9.70;99.90
24522;DHT22;12680;57.804;12.190;2022-11-03T03:26:55;9.70;99.90
24522;DHT22;12680;57.804;12.190;2022-11-03T03:29:23;9.70;99.90
24522;DHT22;12680;57.804;12.190;2022-11-03T03:31:57;9.70;99.90
24522;DHT22;12680;57.804;12.190;2022-11-03T03:34:26;9.70;99.90
24522;DHT22;12680;57.804;12.190;2022-11-03T03:37:02;9.70;99.90
24522;DHT22;12680;57.804;12.190;2022-11-03T03:39:33;9.70;99.90
24522;DHT22;12680;57.804;12.190;2022-11-03T03:42:03;9.80;99.90
24522;DHT22;12680;57.804;12.190;2022-11-03T03:44:31;9.80;99.90
24522;DHT22;12680;57.804;12.190;2022-11-03T03:47:03;9.80;99.90
24522;DHT22;12680;57.804;12.190;2022-11-03T03:49:31;9.80;99.90
24522;DHT22;12680;57.804;12.190;2022-11-03T03:51:59;9.80;99.90
24522;DHT22;12680;57.804;12.190;2022-11-03T03:54:26;9.80;99.90
24522;DHT22;12680;57.804;12.190;2022-11-03T03:57:00;9.80;99.90
24522;DHT22;12680;57.804;12.190;2022-11-03T03:59:29;9.90;99.90
24522;DHT22;12680;57.804;12.190;2022-11-03T04:01:56;9.90;99.90
24522;DHT22;12680;57.804;12.190;2022-11-03T04:04:24;9.90;99.90
24522;DHT22;12680;57.804;12.190;2022-11-03T04:06:51;9.90;99.90
24522;DHT22;12680;57.804;12.190;2022-11-03T04:09:38;9.90;99.90
24522;DHT22;12680;57.804;12.190;2022-11-03T04:12:07;9.90;99.90
24522;DHT22;12680;57.804;12.190;2022-11-03T04:14:53;9.90;99.90
24522;DHT22;12680;57.804;12.190;2022-11-03T04:17:45;9.80;99.90
24522;DHT22;12680;57.804;12.190;2022-11-03T04:20:32;9.80;99.90
24522;DHT22;12680;57.804;12.190;2022-11-03T04:23:19;9.80;99.90
24522;DHT22;12680;57.804;12.190;2022-11-03T04:25:55;9.80;99.90
24522;DHT22;12680;57.804;12.190;2022-11-03T04:28:23;9.90;99.90
24522;DHT22;12680;57.804;12.190;2022-11-03T04:30:54;9.90;99.90
24522;DHT22;12680;57.804;12.190;2022-11-03T04:33:25;9.90;99.90
24522;DHT22;12680;57.804;12.190;2022-11-03T04:35:55;9.90;99.90
24522;DHT22;12680;57.804;12.190;2022-11-03T04:38:25;9.90;99.90
24522;DHT22;12680;57.804;12.190;2022-11-03T04:40:55;10.00;99.90
24522;DHT22;12680;57.804;12.190;2022-11-03T04:43:30;10.00;99.90
24522;DHT22;12680;57.804;12.190;2022-11-03T04:45:58;10.00;99.90
24522;DHT22;12680;57.804;12.190;2022-11-03T04:48:26;10.10;99.90
24522;DHT22;12680;57.804;12.190;2022-11-03T04:50:58;10.10;99.90
24522;DHT22;12680;57.804;12.190;2022-11-03T04:53:29;10.10;99.90
24522;DHT22;12680;57.804;12.190;2022-11-03T04:55:57;10.10;99.90
24522;DHT22;12680;57.804;12.190;2022-11-03T04:58:34;10.20;99.90
24522;DHT22;12680;57.804;12.190;2022-11-03T05:01:02;10.20;99.90
24522;DHT22;12680;57.804;12.190;2022-11-03T05:03:33;10.20;99.90
24522;DHT22;12680;57.804;12.190;2022-11-03T05:06:17;10.20;99.90
24522;DHT22;12680;57.804;12.190;2022-11-03T05:08:51;10.30;99.90
24522;DHT22;12680;57.804;12.190;2022-11-03T05:11:31;10.30;99.90
24522;DHT22;12680;57.804;12.190;2022-11-03T05:14:14;10.30;99.90
24522;DHT22;12680;57.804;12.190;2022-11-03T05:16:43;10.30;99.90
24522;DHT22;12680;57.804;12.190;2022-11-03T05:19:22;10.30;99.90
24522;DHT22;12680;57.804;12.190;2022-11-03T05:21:51;10.30;99.90
24522;DHT22;12680;57.804;12.190;2022-11-03T05:24:21;10.30;99.90
24522;DHT22;12680;57.804;12.190;2022-11-03T05:26:53;10.20;99.90
24522;DHT22;12680;57.804;12.190;2022-11-03T05:31:54;10.10;99.90
24522;DHT22;12680;57.804;12.190;2022-11-03T05:34:40;10.10;99.90
24522;DHT22;12680;57.804;12.190;2022-11-03T05:37:23;10.10;99.90
24522;DHT22;12680;57.804;12.190;2022-11-03T05:39:55;10.00;99.90
24522;DHT22;12680;57.804;12.190;2022-11-03T05:44:54;9.90;99.90
24522;DHT22;12680;57.804;12.190;2022-11-03T05:47:30;9.90;99.90
24522;DHT22;12680;57.804;12.190;2022-11-03T05:52:37;9.80;99.90
24522;DHT22;12680;57.804;12.190;2022-11-03T05:55:11;9.80;99.90
24522;DHT22;12680;57.804;12.190;2022-11-03T05:57:43;9.80;99.90
24522;DHT22;12680;57.804;12.190;2022-11-03T06:00:31;9.80;99.90
24522;DHT22;12680;57.804;12.190;2022-11-03T06:02:58;9.80;99.90
24522;DHT22;12680;57.804;12.190;2022-11-03T06:05:27;9.80;99.90
24522;DHT22;12680;57.804;12.190;2022-11-03T06:07:56;9.80;99.90
24522;DHT22;12680;57.804;12.190;2022-11-03T06:10:28;9.80;99.90
24522;DHT22;12680;57.804;12.190;2022-11-03T06:13:00;9.80;99.90
24522;DHT22;12680;57.804;12.190;2022-11-03T06:15:31;9.80;99.90
24522;DHT22;12680;57.804;12.190;2022-11-03T06:17:59;9.70;99.90
24522;DHT22;12680;57.804;12.190;2022-11-03T06:20:27;9.70;99.90
24522;DHT22;12680;57.804;12.190;2022-11-03T06:22:55;9.80;99.90
24522;DHT22;12680;57.804;12.190;2022-11-03T06:25:30;9.70;99.90
24522;DHT22;12680;57.804;12.190;2022-11-03T06:28:04;9.70;99.90
24522;DHT22;12680;57.804;12.190;2022-11-03T06:30:33;9.70;99.90
24522;DHT22;12680;57.804;12.190;2022-11-03T06:33:25;9.70;99.90
24522;DHT22;12680;57.804;12.190;2022-11-03T06:36:00;9.70;99.90
24522;DHT22;12680;57.804;12.190;2022-11-03T06:38:29;9.70;99.90
24522;DHT22;12680;57.804;12.190;2022-11-03T06:40:59;9.60;99.90
24522;DHT22;12680;57.804;12.190;2022-11-03T06:43:40;9.60;99.90
24522;DHT22;12680;57.804;12.190;2022-11-03T06:46:28;9.70;99.90
24522;DHT22;12680;57.804;12.190;2022-11-03T06:49:00;9.70;99.90
24522;DHT22;12680;57.804;12.190;2022-11-03T06:51:28;9.70;99.90
24522;DHT22;12680;57.804;12.190;2022-11-03T06:53:59;9.70;99.90
24522;DHT22;12680;57.804;12.190;2022-11-03T06:56:34;9.80;99.90
24522;DHT22;12680;57.804;12.190;2022-11-03T06:59:02;9.80;99.90
24522;DHT22;12680;57.804;12.190;2022-11-03T07:01:34;9.80;99.90
24522;DHT22;12680;57.804;12.190;2022-11-03T07:04:17;9.90;99.90
24522;DHT22;12680;57.804;12.190;2022-11-03T07:06:45;9.90;99.90
24522;DHT22;12680;57.804;12.190;2022-11-03T07:09:21;10.00;99.90
24522;DHT22;12680;57.804;12.190;2022-11-03T07:11:51;10.00;99.90
24522;DHT22;12680;57.804;12.190;2022-11-03T07:14:21;10.00;99.90
24522;DHT22;12680;57.804;12.190;2022-11-03T07:16:51;10.10;99.90
24522;DHT22;12680;57.804;12.190;2022-11-03T07:21:53;10.20;99.90
24522;DHT22;12680;57.804;12.190;2022-11-03T07:24:23;10.20;99.90
24522;DHT22;12680;57.804;12.190;2022-11-03T07:27:06;10.20;99.90
24522;DHT22;12680;57.804;12.190;2022-11-03T07:29:40;10.20;99.90
24522;DHT22;12680;57.804;12.190;2022-11-03T07:32:17;10.30;99.90
24522;DHT22;12680;57.804;12.190;2022-11-03T07:34:46;10.30;99.90
24522;DHT22;12680;57.804;12.190;2022-11-03T07:37:20;10.30;99.90
24522;DHT22;12680;57.804;12.190;2022-11-03T07:39:49;10.40;99.90
24522;DHT22;12680;57.804;12.190;2022-11-03T07:42:19;10.40;99.90
24522;DHT22;12680;57.804;12.190;2022-11-03T07:44:47;10.40;99.90
24522;DHT22;12680;57.804;12.190;2022-11-03T07:47:19;10.50;99.90
24522;DHT22;12680;57.804;12.190;2022-11-03T07:49:46;10.50;99.90
24522;DHT22;12680;57.804;12.190;2022-11-03T07:52:15;10.60;99.90
24522;DHT22;12680;57.804;12.190;2022-11-03T07:54:45;10.60;99.90
24522;DHT22;12680;57.804;12.190;2022-11-03T07:57:18;10.70;99.90
24522;DHT22;12680;57.804;12.190;2022-11-03T07:59:49;10.70;99.90
24522;DHT22;12680;57.804;12.190;2022-11-03T08:04:55;10.80;99.90
24522;DHT22;12680;57.804;12.190;2022-11-03T08:07:23;10.80;99.90
24522;DHT22;12680;57.804;12.190;2022-11-03T08:09:50;10.90;99.90
24522;DHT22;12680;57.804;12.190;2022-11-03T08:12:17;10.90;99.90
24522;DHT22;12680;57.804;12.190;2022-11-03T08:14:45;11.00;99.90
24522;DHT22;12680;57.804;12.190;2022-11-03T08:17:13;11.10;99.90
24522;DHT22;12680;57.804;12.190;2022-11-03T08:19:40;11.10;99.90
24522;DHT22;12680;57.804;12.190;2022-11-03T08:22:07;11.20;99.90
24522;DHT22;12680;57.804;12.190;2022-11-03T08:24:34;11.20;99.90
24522;DHT22;12680;57.804;12.190;2022-11-03T08:27:01;11.30;99.90
24522;DHT22;12680;57.804;12.190;2022-11-03T08:29:30;11.30;99.90
24522;DHT22;12680;57.804;12.190;2022-11-03T08:31:57;11.30;99.90
24522;DHT22;12680;57.804;12.190;2022-11-03T08:34:24;11.30;99.90
24522;DHT22;12680;57.804;12.190;2022-11-03T08:36:51;11.40;99.90
24522;DHT22;12680;57.804;12.190;2022-11-03T08:39:18;11.40;99.90
24522;DHT22;12680;57.804;12.190;2022-11-03T08:41:46;11.50;99.90
24522;DHT22;12680;57.804;12.190;2022-11-03T08:44:13;11.50;99.90
24522;DHT22;12680;57.804;12.190;2022-11-03T08:46:40;11.50;99.90
24522;DHT22;12680;57.804;12.190;2022-11-03T08:49:07;11.60;99.90
24522;DHT22;12680;57.804;12.190;2022-11-03T08:51:34;11.60;99.90
24522;DHT22;12680;57.804;12.190;2022-11-03T08:54:07;11.60;99.90
24522;DHT22;12680;57.804;12.190;2022-11-03T08:56:34;11.70;99.90
24522;DHT22;12680;57.804;12.190;2022-11-03T08:59:01;11.70;99.90
24522;DHT22;12680;57.804;12.190;2022-11-03T09:01:28;11.80;99.90
24522;DHT22;12680;57.804;12.190;2022-11-03T09:03:55;11.80;99.90
24522;DHT22;12680;57.804;12.190;2022-11-03T09:06:22;11.80;99.90
24522;DHT22;12680;57.804;12.190;2022-11-03T09:08:50;11.90;99.90
24522;DHT22;12680;57.804;12.190;2022-11-03T09:11:37;11.90;99.90
24522;DHT22;12680;57.804;12.190;2022-11-03T09:14:04;12.00;99.90
24522;DHT22;12680;57.804;12.190;2022-11-03T09:16:31;12.00;99.90
24522;DHT22;12680;57.804;12.190;2022-11-03T09:18:58;12.00;99.90
24522;DHT22;12680;57.804;12.190;2022-11-03T09:21:25;12.00;99.90
24522;DHT22;12680;57.804;12.190;2022-11-03T09:23:52;12.80;99.90
24522;DHT22;12680;57.804;12.190;2022-11-03T09:26:19;12.10;99.90
24522;DHT22;12680;57.804;12.190;2022-11-03T09:28:46;12.10;99.90
24522;DHT22;12680;57.804;12.190;2022-11-03T09:31:15;12.00;99.90
24522;DHT22;12680;57.804;12.190;2022-11-03T09:33:42;12.00;99.90
24522;DHT22;12680;57.804;12.190;2022-11-03T09:36:10;12.10;99.90
24522;DHT22;12680;57.804;12.190;2022-11-03T09:38:37;12.10;99.90
24522;DHT22;12680;57.804;12.190;2022-11-03T09:41:04;12.10;99.90
24522;DHT22;12680;57.804;12.190;2022-11-03T09:43:51;12.10;99.90
24522;DHT22;12680;57.804;12.190;2022-11-03T09:46:19;12.20;99.90
24522;DHT22;12680;57.804;12.190;2022-11-03T09:48:46;12.20;99.90
24522;DHT22;12680;57.804;12.190;2022-11-03T09:51:18;12.30;99.90
24522;DHT22;12680;57.804;12.190;2022-11-03T09:53:46;12.30;99.90
24522;DHT22;12680;57.804;12.190;2022-11-03T09:56:16;12.30;99.90
24522;DHT22;12680;57.804;12.190;2022-11-03T09:58:43;12.40;99.90
24522;DHT22;12680;57.804;12.190;2022-11-03T10:01:18;12.40;99.90
24522;DHT22;12680;57.804;12.190;2022-11-03T10:03:46;12.40;99.90
24522;DHT22;12680;57.804;12.190;2022-11-03T10:06:13;12.40;99.90
24522;DHT22;12680;57.804;12.190;2022-11-03T10:08:44;12.50;99.90
24522;DHT22;12680;57.804;12.190;2022-11-03T10:11:12;12.50;99.90
24522;DHT22;12680;57.804;12.190;2022-11-03T10:13:44;12.50;99.90
24522;DHT22;12680;57.804;12.190;2022-11-03T10:16:18;12.50;99.90
24522;DHT22;12680;57.804;12.190;2022-11-03T10:18:46;12.50;99.90
24522;DHT22;12680;57.804;12.190;2022-11-03T10:21:19;12.50;99.90
24522;DHT22;12680;57.804;12.190;2022-11-03T10:23:47;12.50;99.90
24522;DHT22;12680;57.804;12.190;2022-11-03T10:26:17;12.50;99.90
24522;DHT22;12680;57.804;12.190;2022-11-03T10:29:03;12.50;99.90
24522;DHT22;12680;57.804;12.190;2022-11-03T10:31:39;12.50;99.90
24522;DHT22;12680;57.804;12.190;2022-11-03T10:34:33;12.50;99.90
24522;DHT22;12680;57.804;12.190;2022-11-03T10:37:15;12.50;99.90
24522;DHT22;12680;57.804;12.190;2022-11-03T10:39:43;12.60;99.90
24522;DHT22;12680;57.804;12.190;2022-11-03T10:42:18;12.70;99.90
24522;DHT22;12680;57.804;12.190;2022-11-03T10:44:47;12.70;99.90
24522;DHT22;12680;57.804;12.190;2022-11-03T10:47:33;12.80;99.90
24522;DHT22;12680;57.804;12.190;2022-11-03T10:50:21;12.80;99.90
24522;DHT22;12680;57.804;12.190;2022-11-03T10:52:49;12.80;99.90
24522;DHT22;12680;57.804;12.190;2022-11-03T10:55:19;12.80;99.90
24522;DHT22;12680;57.804;12.190;2022-11-03T10:57:52;12.90;99.90
24522;DHT22;12680;57.804;12.190;2022-11-03T11:00:21;12.90;99.90
24522;DHT22;12680;57.804;12.190;2022-11-03T11:02:56;12.90;99.90
24522;DHT22;12680;57.804;12.190;2022-11-03T11:05:25;13.00;99.90
24522;DHT22;12680;57.804;12.190;2022-11-03T11:07:53;13.00;99.90
24522;DHT22;12680;57.804;12.190;2022-11-03T11:10:26;13.00;99.90
24522;DHT22;12680;57.804;12.190;2022-11-03T11:15:43;13.00;99.90
24522;DHT22;12680;57.804;12.190;2022-11-03T11:23:49;13.20;99.90
24522;DHT22;12680;57.804;12.190;2022-11-03T11:31:46;13.30;99.90
24522;DHT22;12680;57.804;12.190;2022-11-03T11:42:19;13.30;99.90
24522;DHT22;12680;57.804;12.190;2022-11-03T11:44:52;13.30;99.90
24522;DHT22;12680;57.804;12.190;2022-11-03T11:47:26;13.30;99.90
24522;DHT22;12680;57.804;12.190;2022-11-03T11:52:44;13.30;99.90
24522;DHT22;12680;57.804;12.190;2022-11-03T11:57:56;13.30;99.90
24522;DHT22;12680;57.804;12.190;2022-11-03T12:00:29;13.30;99.90
24522;DHT22;12680;57.804;12.190;2022-11-03T12:02:56;13.30;99.90
24522;DHT22;12680;57.804;12.190;2022-11-03T12:05:31;13.30;99.90
24522;DHT22;12680;57.804;12.190;2022-11-03T12:07:58;13.30;99.90
24522;DHT22;12680;57.804;12.190;2022-11-03T12:10:30;13.20;99.90
24522;DHT22;12680;57.804;12.190;2022-11-03T12:12:59;13.20;99.90
24522;DHT22;12680;57.804;12.190;2022-11-03T12:15:47;13.20;99.90
24522;DHT22;12680;57.804;12.190;2022-11-03T12:18:40;13.10;99.90
24522;DHT22;12680;57.804;12.190;2022-11-03T12:21:47;13.20;99.90
24522;DHT22;12680;57.804;12.190;2022-11-03T12:27:00;13.20;99.90
24522;DHT22;12680;57.804;12.190;2022-11-03T12:29:27;13.20;99.90
24522;DHT22;12680;57.804;12.190;2022-11-03T12:31:55;13.20;99.90
24522;DHT22;12680;57.804;12.190;2022-11-03T12:34:22;13.20;99.90
24522;DHT22;12680;57.804;12.190;2022-11-03T12:36:49;13.30;99.90
24522;DHT22;12680;57.804;12.190;2022-11-03T12:39:22;13.30;99.90
24522;DHT22;12680;57.804;12.190;2022-11-03T12:41:49;13.30;99.90
24522;DHT22;12680;57.804;12.190;2022-11-03T12:44:16;13.30;99.90
24522;DHT22;12680;57.804;12.190;2022-11-03T12:46:43;13.20;99.90
24522;DHT22;12680;57.804;12.190;2022-11-03T12:49:10;13.20;99.90
24522;DHT22;12680;57.804;12.190;2022-11-03T12:51:37;13.20;99.90
24522;DHT22;12680;57.804;12.190;2022-11-03T12:54:04;13.30;99.90
24522;DHT22;12680;57.804;12.190;2022-11-03T12:56:31;13.30;99.90
24522;DHT22;12680;57.804;12.190;2022-11-03T12:58:58;13.30;99.90
24522;DHT22;12680;57.804;12.190;2022-11-03T13:01:25;13.30;99.90
24522;DHT22;12680;57.804;12.190;2022-11-03T13:03:53;13.30;99.90
24522;DHT22;12680;57.804;12.190;2022-11-03T13:06:20;13.40;99.90
24522;DHT22;12680;57.804;12.190;2022-11-03T13:08:48;13.40;99.90
24522;DHT22;12680;57.804;12.190;2022-11-03T13:11:19;13.40;99.90
24522;DHT22;12680;57.804;12.190;2022-11-03T13:14:04;13.40;99.90
24522;DHT22;12680;57.804;12.190;2022-11-03T13:16:32;13.40;99.90
24522;DHT22;12680;57.804;12.190;2022-11-03T13:18:59;13.40;99.90
24522;DHT22;12680;57.804;12.190;2022-11-03T13:21:26;13.50;99.90
24522;DHT22;12680;57.804;12.190;2022-11-03T13:23:53;13.50;99.90
24522;DHT22;12680;57.804;12.190;2022-11-03T13:26:22;13.50;99.90
24522;DHT22;12680;57.804;12.190;2022-11-03T13:28:49;13.40;99.90
24522;DHT22;12680;57.804;12.190;2022-11-03T13:31:16;13.50;99.90
24522;DHT22;12680;57.804;12.190;2022-11-03T13:33:43;13.50;99.90
24522;DHT22;12680;57.804;12.190;2022-11-03T13:36:10;13.60;99.90
24522;DHT22;12680;57.804;12.190;2022-11-03T13:38:40;13.60;99.90
24522;DHT22;12680;57.804;12.190;2022-11-03T13:41:08;13.60;99.90
24522;DHT22;12680;57.804;12.190;2022-11-03T13:43:35;13.60;99.90
24522;DHT22;12680;57.804;12.190;2022-11-03T13:46:02;13.50;99.90
24522;DHT22;12680;57.804;12.190;2022-11-03T13:48:31;13.50;99.90
24522;DHT22;12680;57.804;12.190;2022-11-03T13:51:18;13.50;99.90
24522;DHT22;12680;57.804;12.190;2022-11-03T13:53:47;13.50;99.90
24522;DHT22;12680;57.804;12.190;2022-11-03T13:56:34;13.50;99.90
24522;DHT22;12680;57.804;12.190;2022-11-03T13:59:21;13.40;99.90
24522;DHT22;12680;57.804;12.190;2022-11-03T14:01:49;13.40;99.90
24522;DHT22;12680;57.804;12.190;2022-11-03T14:04:37;13.40;99.90
24522;DHT22;12680;57.804;12.190;2022-11-03T14:07:06;13.30;99.90
24522;DHT22;12680;57.804;12.190;2022-11-03T14:09:33;13.30;99.90
24522;DHT22;12680;57.804;12.190;2022-11-03T14:12:05;13.20;99.90
24522;DHT22;12680;57.804;12.190;2022-11-03T14:15:04;13.20;99.90
24522;DHT22;12680;57.804;12.190;2022-11-03T14:17:32;13.10;99.90
24522;DHT22;12680;57.804;12.190;2022-11-03T14:19:59;13.10;99.90
24522;DHT22;12680;57.804;12.190;2022-11-03T14:22:30;13.00;99.90
24522;DHT22;12680;57.804;12.190;2022-11-03T14:24:58;13.00;99.90
24522;DHT22;12680;57.804;12.190;2022-11-03T14:27:25;12.90;99.90
24522;DHT22;12680;57.804;12.190;2022-11-03T14:29:52;12.90;99.90
24522;DHT22;12680;57.804;12.190;2022-11-03T14:32:19;12.90;99.90
24522;DHT22;12680;57.804;12.190;2022-11-03T14:34:47;12.80;99.90
24522;DHT22;12680;57.804;12.190;2022-11-03T14:37:14;12.80;99.90
24522;DHT22;12680;57.804;12.190;2022-11-03T14:39:42;12.80;99.90
24522;DHT22;12680;57.804;12.190;2022-11-03T14:42:11;12.80;99.90
24522;DHT22;12680;57.804;12.190;2022-11-03T14:44:43;12.70;99.90
24522;DHT22;12680;57.804;12.190;2022-11-03T14:47:15;12.70;99.90
24522;DHT22;12680;57.804;12.190;2022-11-03T14:49:47;12.70;99.90
24522;DHT22;12680;57.804;12.190;2022-11-03T14:52:15;12.60;99.90
24522;DHT22;12680;57.804;12.190;2022-11-03T14:54:42;12.60;99.90
24522;DHT22;12680;57.804;12.190;2022-11-03T14:57:10;12.60;99.90
24522;DHT22;12680;57.804;12.190;2022-11-03T14:59:37;12.50;99.90
24522;DHT22;12680;57.804;12.190;2022-11-03T15:02:04;12.50;99.90
24522;DHT22;12680;57.804;12.190;2022-11-03T15:04:32;12.50;99.90
24522;DHT22;12680;57.804;12.190;2022-11-03T15:06:59;12.40;99.90
24522;DHT22;12680;57.804;12.190;2022-11-03T15:09:27;12.40;99.90
24522;DHT22;12680;57.804;12.190;2022-11-03T15:11:54;12.40;99.90
24522;DHT22;12680;57.804;12.190;2022-11-03T15:14:21;12.30;99.90
24522;DHT22;12680;57.804;12.190;2022-11-03T15:16:48;12.30;99.90
24522;DHT22;12680;57.804;12.190;2022-11-03T15:19:15;12.20;99.90
24522;DHT22;12680;57.804;12.190;2022-11-03T15:21:42;12.20;99.90
24522;DHT22;12680;57.804;12.190;2022-11-03T15:24:09;12.10;99.90
24522;DHT22;12680;57.804;12.190;2022-11-03T15:26:56;12.00;99.90
24522;DHT22;12680;57.804;12.190;2022-11-03T15:29:23;11.90;99.90
24522;DHT22;12680;57.804;12.190;2022-11-03T15:31:50;11.90;99.90
24522;DHT22;12680;57.804;12.190;2022-11-03T15:34:17;11.80;99.90
24522;DHT22;12680;57.804;12.190;2022-11-03T15:36:45;11.70;99.90
24522;DHT22;12680;57.804;12.190;2022-11-03T15:39:12;11.60;99.90
24522;DHT22;12680;57.804;12.190;2022-11-03T15:41:39;11.60;99.90
24522;DHT22;12680;57.804;12.190;2022-11-03T15:44:06;11.50;99.90
24522;DHT22;12680;57.804;12.190;2022-11-03T15:46:33;11.50;99.90
24522;DHT22;12680;57.804;12.190;2022-11-03T15:49:02;11.40;99.90
24522;DHT22;12680;57.804;12.190;2022-11-03T15:51:29;11.40;99.90
24522;DHT22;12680;57.804;12.190;2022-11-03T15:53:56;11.30;99.90
24522;DHT22;12680;57.804;12.190;2022-11-03T15:56:28;11.30;99.90
24522;DHT22;12680;57.804;12.190;2022-11-03T15:58:55;11.30;99.90
24522;DHT22;12680;57.804;12.190;2022-11-03T16:01:22;11.30;99.90
24522;DHT22;12680;57.804;12.190;2022-11-03T16:03:50;11.30;99.90
24522;DHT22;12680;57.804;12.190;2022-11-03T16:06:17;11.20;99.90
24522;DHT22;12680;57.804;12.190;2022-11-03T16:08:44;11.20;99.90
24522;DHT22;12680;57.804;12.190;2022-11-03T16:11:11;11.20;99.90
24522;DHT22;12680;57.804;12.190;2022-11-03T16:13:40;11.20;99.90
24522;DHT22;12680;57.804;12.190;2022-11-03T16:16:07;11.20;99.90
24522;DHT22;12680;57.804;12.190;2022-11-03T16:18:34;11.20;99.90
24522;DHT22;12680;57.804;12.190;2022-11-03T16:21:01;11.20;99.90
24522;DHT22;12680;57.804;12.190;2022-11-03T16:23:29;11.10;99.90
24522;DHT22;12680;57.804;12.190;2022-11-03T16:25:56;11.10;99.90
24522;DHT22;12680;57.804;12.190;2022-11-03T16:28:23;11.00;99.90
24522;DHT22;12680;57.804;12.190;2022-11-03T16:30:50;11.00;99.90
24522;DHT22;12680;57.804;12.190;2022-11-03T16:33:20;11.00;99.90
24522;DHT22;12680;57.804;12.190;2022-11-03T16:35:48;10.90;99.90
24522;DHT22;12680;57.804;12.190;2022-11-03T16:38:15;10.90;99.90
24522;DHT22;12680;57.804;12.190;2022-11-03T16:40:42;10.90;99.90
24522;DHT22;12680;57.804;12.190;2022-11-03T16:43:10;10.80;99.90
24522;DHT22;12680;57.804;12.190;2022-11-03T16:45:37;10.80;99.90
24522;DHT22;12680;57.804;12.190;2022-11-03T16:48:05;10.80;99.90
24522;DHT22;12680;57.804;12.190;2022-11-03T16:50:33;10.80;99.90